Time;durP1;ratioP1;P1;durP2;ratioP2;P2;SDS_P1;SDS_P2;PMS_P1;PMS_P2;Temp;Humidity;BMP_temperature;BMP_pressure;BME280_temperature;BME280_humidity;BME280_pressure;Samples;Min_cycle;Max_cycle;Signal;HPM_P1;HPM_P2
2022/09/28 00:01:41;;;;;;;10.40;9.35;;;14.40;99.90;;;;;;6364459;28;20265;-67
2022/09/28 00:04:47;;;;;;;11.27;10.10;;;14.40;99.90;;;;;;6363868;28;20297;-67
2022/09/28 00:07:53;;;;;;;12.80;10.52;;;14.40;99.90;;;;;;6363471;28;20288;-67
2022/09/28 00:10:58;;;;;;;13.38;9.82;;;14.50;99.90;;;;;;6364003;28;20257;-67
2022/09/28 00:14:06;;;;;;;12.40;9.93;;;14.50;99.90;;;;;;6363249;28;20296;-67
2022/09/28 00:17:15;;;;;;;12.32;10.10;;;14.50;99.90;;;;;;6363457;28;20266;-67
2022/09/28 00:20:22;;;;;;;10.43;9.35;;;14.50;99.90;;;;;;6363921;28;20572;-67
2022/09/28 00:23:27;;;;;;;11.20;9.98;;;14.50;99.90;;;;;;6362986;28;20293;-67
2022/09/28 00:26:33;;;;;;;13.55;10.75;;;14.50;99.90;;;;;;6363108;28;20269;-67
2022/09/28 00:29:38;;;;;;;10.52;9.50;;;14.50;99.90;;;;;;6361513;28;20289;-67
2022/09/28 00:32:43;;;;;;;10.48;9.40;;;14.40;99.90;;;;;;6363028;28;20606;-67
2022/09/28 00:35:57;;;;;;;10.27;9.35;;;14.50;99.90;;;;;;6363679;28;20265;-67
2022/09/28 00:39:06;;;;;;;10.30;9.30;;;14.40;99.90;;;;;;6362886;28;20592;-67
2022/09/28 00:42:14;;;;;;;11.18;9.07;;;14.40;99.90;;;;;;6362978;28;20261;-68
2022/09/28 00:45:19;;;;;;;10.02;9.02;;;14.40;99.90;;;;;;6345115;28;20584;-67
2022/09/28 00:48:29;;;;;;;12.65;8.68;;;14.40;99.90;;;;;;6362733;28;20292;-67
2022/09/28 00:51:37;;;;;;;10.10;8.30;;;14.40;99.90;;;;;;6363364;28;20269;-67
2022/09/28 00:54:44;;;;;;;8.80;8.10;;;14.40;99.90;;;;;;6362662;28;20302;-68
2022/09/28 00:57:54;;;;;;;9.38;8.23;;;14.40;99.90;;;;;;6362081;28;20288;-67
2022/09/28 01:00:59;;;;;;;7.75;7.10;;;14.40;99.90;;;;;;6344798;28;20269;-67
2022/09/28 01:04:05;;;;;;;7.60;6.90;;;14.40;99.90;;;;;;6344298;28;20583;-67
2022/09/28 01:07:13;;;;;;;7.65;6.88;;;14.40;99.90;;;;;;6344303;28;20435;-67
2022/09/28 01:10:18;;;;;;;6.28;5.78;;;14.40;99.90;;;;;;6362399;28;20261;-67
2022/09/28 01:13:24;;;;;;;9.23;5.93;;;14.40;99.90;;;;;;6360783;28;20312;-67
2022/09/28 01:16:41;;;;;;;6.53;5.93;;;14.40;99.90;;;;;;6361205;28;20265;-67
2022/09/28 01:20:48;;;;;;;5.82;5.32;;;14.40;99.90;;;;;;6343691;28;20265;-68
2022/09/28 01:24:21;;;;;;;10.65;5.18;;;14.30;99.90;;;;;;6234656;28;20296;-67
2022/09/28 01:27:29;;;;;;;6.90;4.50;;;14.40;99.90;;;;;;6234716;28;20475;-67
2022/09/28 01:30:39;;;;;;;4.80;4.40;;;14.40;99.90;;;;;;6218756;28;20270;-67
2022/09/28 01:33:47;;;;;;;4.07;3.88;;;14.40;99.90;;;;;;6234748;28;20300;-67
2022/09/28 01:36:55;;;;;;;7.20;4.50;;;14.40;99.90;;;;;;6234898;28;20268;-68
2022/09/28 01:40:02;;;;;;;5.90;4.25;;;14.40;99.90;;;;;;6217725;28;20280;-67
2022/09/28 01:43:12;;;;;;;4.65;3.92;;;14.40;99.90;;;;;;6234276;28;20656;-67
2022/09/28 01:46:20;;;;;;;6.55;3.88;;;14.40;99.90;;;;;;6235015;28;20547;-67
2022/09/28 01:49:30;;;;;;;4.22;3.95;;;14.30;99.90;;;;;;6234426;28;20514;-67
2022/09/28 01:52:39;;;;;;;7.13;4.00;;;14.30;99.90;;;;;;6234091;28;20300;-67
2022/09/28 01:55:48;;;;;;;7.35;3.97;;;14.30;99.90;;;;;;6350870;28;20560;-68
2022/09/28 01:58:59;;;;;;;4.47;3.70;;;14.30;99.90;;;;;;6343419;28;20289;-67
2022/09/28 02:02:09;;;;;;;4.90;3.80;;;14.30;99.90;;;;;;6343034;28;20556;-67
2022/09/28 02:05:17;;;;;;;3.63;3.40;;;14.30;99.90;;;;;;6361101;28;20280;-68
2022/09/28 02:08:27;;;;;;;3.88;3.58;;;14.20;99.90;;;;;;6360077;28;20294;-67
2022/09/28 02:11:36;;;;;;;4.20;3.90;;;14.30;99.90;;;;;;6360061;28;20426;-68
2022/09/28 02:14:45;;;;;;;4.00;3.75;;;14.30;99.90;;;;;;6343069;28;20297;-68
2022/09/28 02:17:50;;;;;;;4.00;3.67;;;14.20;99.90;;;;;;6361060;28;20289;-67
2022/09/28 02:21:18;;;;;;;4.30;4.10;;;14.20;99.90;;;;;;6354604;28;20532;-68
2022/09/28 02:24:32;;;;;;;3.75;3.55;;;14.20;99.90;;;;;;6343052;28;20297;-68
2022/09/28 02:27:41;;;;;;;3.80;3.58;;;14.20;99.90;;;;;;6360832;28;20285;-67
2022/09/28 02:30:48;;;;;;;5.32;4.55;;;14.20;99.90;;;;;;6348316;28;20282;-68
2022/09/28 02:33:57;;;;;;;4.03;3.72;;;14.20;99.90;;;;;;6347905;28;20600;-67
2022/09/28 02:37:02;;;;;;;4.32;4.05;;;14.30;99.90;;;;;;6365770;28;20265;-67
2022/09/28 02:40:14;;;;;;;4.57;4.20;;;14.20;99.90;;;;;;6365340;28;20265;-67
2022/09/28 02:43:25;;;;;;;4.50;4.10;;;14.20;99.90;;;;;;6347846;28;20607;-67
2022/09/28 02:46:37;;;;;;;4.32;3.97;;;14.10;99.90;;;;;;6348141;28;20595;-67
2022/09/28 02:50:11;;;;;;;7.32;4.18;;;14.20;99.90;;;;;;6347470;28;20596;-66
2022/09/28 02:53:49;;;;;;;5.78;3.63;;;14.20;99.90;;;;;;6365610;28;20298;-66
2022/09/28 02:57:10;;;;;;;4.22;3.70;;;14.20;99.90;;;;;;6347992;28;20373;-67
2022/09/28 03:00:18;;;;;;;5.95;3.45;;;14.20;99.90;;;;;;6347063;28;20273;-67
2022/09/28 03:03:33;;;;;;;6.10;3.58;;;14.20;99.90;;;;;;6362175;28;20301;-68
2022/09/28 03:06:42;;;;;;;4.75;3.42;;;14.20;99.90;;;;;;6347285;28;20281;-67
2022/09/28 03:09:56;;;;;;;8.82;3.83;;;14.20;99.90;;;;;;6362360;28;20308;-68
2022/09/28 03:13:02;;;;;;;3.53;3.22;;;14.20;99.90;;;;;;6338018;28;20293;-67
2022/09/28 03:16:13;;;;;;;4.28;3.47;;;14.20;99.90;;;;;;6339191;28;20274;-67
2022/09/28 03:19:24;;;;;;;3.50;3.20;;;14.20;99.90;;;;;;6346812;28;20289;-67
2022/09/28 03:22:29;;;;;;;6.75;3.67;;;14.20;99.90;;;;;;6363421;28;20265;-67
2022/09/28 03:25:34;;;;;;;3.97;3.67;;;14.10;99.90;;;;;;6364148;28;20285;-66
2022/09/28 03:28:39;;;;;;;3.58;3.25;;;14.10;99.90;;;;;;6346615;28;20293;-66
2022/09/28 03:31:48;;;;;;;4.07;3.30;;;14.10;99.90;;;;;;6346875;28;20536;-67
2022/09/28 03:34:54;;;;;;;6.20;3.78;;;14.10;99.90;;;;;;6364580;28;20292;-67
2022/09/28 03:37:59;;;;;;;4.93;3.47;;;14.10;99.90;;;;;;6341177;28;20286;-67
2022/09/28 03:41:08;;;;;;;3.83;3.53;;;14.10;99.90;;;;;;6354512;28;20258;-67
2022/09/28 03:44:15;;;;;;;4.00;3.53;;;14.00;99.90;;;;;;6338126;28;20591;-67
2022/09/28 03:47:21;;;;;;;3.92;3.60;;;14.00;99.90;;;;;;6337832;28;20380;-66
2022/09/28 03:50:27;;;;;;;5.57;3.38;;;13.90;99.90;;;;;;6355287;28;20265;-67
2022/09/28 03:53:33;;;;;;;3.90;3.10;;;13.90;99.90;;;;;;6354683;28;20472;-67
2022/09/28 03:56:38;;;;;;;6.32;3.20;;;14.00;99.90;;;;;;6354482;28;20273;-68
2022/09/28 03:59:43;;;;;;;3.55;3.33;;;14.00;99.90;;;;;;6337780;28;20290;-68
2022/09/28 04:02:48;;;;;;;6.22;3.35;;;14.00;99.90;;;;;;6338732;28;20337;-68
2022/09/28 04:05:55;;;;;;;3.28;3.17;;;13.90;99.90;;;;;;6337843;28;20575;-67
2022/09/28 04:09:00;;;;;;;5.25;3.17;;;13.90;99.90;;;;;;6337280;28;20290;-67
2022/09/28 04:12:06;;;;;;;3.45;3.15;;;13.80;99.90;;;;;;6345705;28;20285;-67
2022/09/28 04:15:15;;;;;;;5.45;3.13;;;13.80;99.90;;;;;;6361858;28;20276;-67
2022/09/28 04:18:21;;;;;;;3.63;3.33;;;13.80;99.90;;;;;;6345325;28;20293;-68
2022/09/28 04:21:46;;;;;;;3.97;3.03;;;13.80;99.90;;;;;;6363361;28;20265;-66
2022/09/28 04:24:51;;;;;;;3.80;2.80;;;13.90;99.90;;;;;;6362254;28;20375;-66
2022/09/28 04:31:20;;;;;;;3.65;3.10;;;13.80;99.90;;;;;;6363952;28;20265;-66
2022/09/28 04:34:26;;;;;;;4.85;2.88;;;13.80;99.90;;;;;;6344947;28;20300;-66
2022/09/28 04:37:38;;;;;;;8.00;3.20;;;13.90;99.90;;;;;;6361990;28;20475;-67
2022/09/28 04:40:43;;;;;;;4.13;3.20;;;13.90;99.90;;;;;;6345188;28;20268;-67
2022/09/28 04:43:48;;;;;;;3.42;3.13;;;13.80;99.90;;;;;;6344789;28;20595;-67
2022/09/28 04:46:55;;;;;;;5.00;3.10;;;13.80;99.90;;;;;;6344692;28;20285;-67
2022/09/28 04:50:07;;;;;;;2.38;2.28;;;13.80;99.90;;;;;;6362125;28;20293;-67
2022/09/28 04:53:33;;;;;;;2.88;2.55;;;13.80;99.90;;;;;;6361519;28;20293;-67
2022/09/28 04:56:39;;;;;;;5.05;3.15;;;13.80;99.90;;;;;;6361275;28;20268;-67
2022/09/28 04:59:44;;;;;;;4.20;3.20;;;13.80;99.90;;;;;;6362400;28;20472;-68
2022/09/28 05:02:49;;;;;;;2.92;2.65;;;13.80;99.90;;;;;;6344223;28;20285;-67
2022/09/28 05:06:32;;;;;;;2.95;2.47;;;13.80;99.90;;;;;;6273906;28;20319;-67
2022/09/28 05:09:43;;;;;;;5.22;2.65;;;13.80;99.90;;;;;;6251057;28;20352;-68
2022/09/28 05:12:48;;;;;;;4.78;2.30;;;13.80;99.90;;;;;;6360498;28;20541;-67
2022/09/28 05:15:55;;;;;;;7.50;2.70;;;13.80;99.90;;;;;;6336870;28;20463;-67
2022/09/28 05:19:06;;;;;;;3.45;2.63;;;13.80;99.90;;;;;;6318669;28;20274;-67
2022/09/28 05:22:13;;;;;;;5.18;2.72;;;13.90;99.90;;;;;;6340454;28;20288;-66
2022/09/28 05:25:23;;;;;;;3.85;2.70;;;13.80;99.90;;;;;;6343645;28;20265;-67
2022/09/28 05:28:38;;;;;;;2.60;2.50;;;13.70;99.90;;;;;;6361220;28;20293;-67
2022/09/28 05:32:15;;;;;;;3.88;2.55;;;13.70;99.90;;;;;;6361072;28;20285;-67
2022/09/28 05:35:26;;;;;;;4.65;2.80;;;13.80;99.90;;;;;;6343732;28;20456;-67
2022/09/28 05:38:31;;;;;;;2.88;2.65;;;13.70;99.90;;;;;;6343515;28;20284;-66
2022/09/28 05:41:38;;;;;;;3.70;2.35;;;13.70;99.90;;;;;;6360052;28;20289;-67
2022/09/28 05:44:43;;;;;;;3.95;3.10;;;13.70;99.90;;;;;;6343563;28;20261;-67
2022/09/28 05:47:49;;;;;;;2.83;2.67;;;13.80;99.90;;;;;;6360188;28;20292;-67
2022/09/28 05:50:58;;;;;;;4.50;2.65;;;13.80;99.90;;;;;;6343524;28;20289;-67
2022/09/28 05:54:03;;;;;;;4.63;2.40;;;13.70;99.90;;;;;;6343434;28;20371;-67
2022/09/28 05:57:14;;;;;;;2.83;2.50;;;13.70;99.90;;;;;;6342869;28;20296;-68
2022/09/28 06:00:19;;;;;;;3.33;2.63;;;13.70;99.90;;;;;;6343006;28;20261;-67
2022/09/28 06:03:30;;;;;;;2.85;2.58;;;13.70;99.90;;;;;;6360207;28;20269;-67
2022/09/28 06:06:35;;;;;;;6.82;2.67;;;13.70;99.90;;;;;;6342548;28;20288;-68
2022/09/28 06:09:40;;;;;;;6.85;2.78;;;13.70;99.90;;;;;;6361174;28;20261;-67
2022/09/28 06:12:56;;;;;;;4.85;2.47;;;13.70;99.90;;;;;;6359363;28;20297;-67
2022/09/28 06:16:04;;;;;;;6.28;2.33;;;13.70;99.90;;;;;;6360465;28;20222;-67
2022/09/28 06:19:10;;;;;;;6.40;2.33;;;13.70;99.90;;;;;;6343025;28;20273;-67
2022/09/28 06:22:41;;;;;;;2.63;2.42;;;13.80;99.90;;;;;;6357665;28;20293;-67
2022/09/28 06:25:47;;;;;;;3.00;2.60;;;13.70;99.90;;;;;;6358606;28;20285;-66
2022/09/28 06:28:54;;;;;;;5.13;3.03;;;13.80;99.90;;;;;;6343080;28;20472;-67
2022/09/28 06:31:59;;;;;;;2.67;2.42;;;13.80;99.90;;;;;;6359180;28;20580;-67
2022/09/28 06:35:06;;;;;;;2.72;2.53;;;13.80;99.90;;;;;;6342438;28;20269;-67
2022/09/28 06:38:16;;;;;;;7.57;2.53;;;13.80;99.90;;;;;;6341873;28;20274;-67
2022/09/28 06:41:21;;;;;;;2.42;2.30;;;13.80;99.90;;;;;;6359294;28;20296;-67
2022/09/28 06:44:27;;;;;;;2.55;2.35;;;13.80;99.90;;;;;;6343055;28;20547;-67
2022/09/28 06:47:55;;;;;;;5.00;2.40;;;13.80;99.90;;;;;;6328312;28;20297;-67
2022/09/28 06:51:07;;;;;;;2.25;2.10;;;13.90;99.90;;;;;;6359159;28;20285;-66
2022/09/28 06:54:33;;;;;;;2.40;2.30;;;13.90;99.90;;;;;;6359800;28;20270;-66
2022/09/28 06:58:01;;;;;;;3.35;2.20;;;14.00;99.90;;;;;;6359313;28;20596;-66
2022/09/28 07:01:10;;;;;;;3.35;2.45;;;14.00;99.90;;;;;;6342099;28;20284;-66
2022/09/28 07:04:41;;;;;;;2.15;2.13;;;14.00;99.90;;;;;;6331975;28;20577;-66
2022/09/28 07:08:04;;;;;;;2.33;2.10;;;14.00;99.90;;;;;;6360022;28;20293;-66
2022/09/28 07:11:39;;;;;;;2.25;1.98;;;14.00;99.90;;;;;;6330527;28;20286;-66
2022/09/28 07:15:19;;;;;;;2.72;2.40;;;14.10;99.90;;;;;;6347813;28;20262;-66
2022/09/28 07:18:27;;;;;;;3.13;2.40;;;14.10;99.90;;;;;;6365331;28;20277;-66
2022/09/28 07:21:32;;;;;;;6.30;2.00;;;14.20;99.90;;;;;;6346735;28;20292;-66
2022/09/28 07:24:40;;;;;;;2.28;2.08;;;14.30;99.90;;;;;;6347444;28;20273;-66
2022/09/28 07:28:04;;;;;;;3.22;2.13;;;14.30;99.90;;;;;;6364601;28;20301;-67
2022/09/28 07:31:28;;;;;;;2.90;2.30;;;14.30;99.90;;;;;;6346430;28;20294;-67
2022/09/28 07:35:06;;;;;;;3.50;1.90;;;14.30;99.90;;;;;;6351670;28;20270;-66
2022/09/28 07:38:22;;;;;;;2.78;1.85;;;14.40;99.90;;;;;;6363024;28;20269;-66
2022/09/28 07:41:32;;;;;;;4.05;2.03;;;14.40;99.90;;;;;;6346484;28;20296;-66
2022/09/28 07:44:39;;;;;;;2.13;1.90;;;14.50;99.90;;;;;;6363815;28;20458;-66
2022/09/28 07:47:44;;;;;;;4.32;1.90;;;14.30;99.90;;;;;;6362516;28;20308;-67
2022/09/28 07:51:16;;;;;;;2.40;2.20;;;14.30;99.90;;;;;;6325594;28;20300;-67
2022/09/28 07:54:31;;;;;;;2.00;1.90;;;14.20;99.90;;;;;;6363433;28;20273;-67
2022/09/28 07:58:01;;;;;;;3.00;1.95;;;14.30;99.90;;;;;;6345757;28;20451;-66
2022/09/28 08:01:24;;;;;;;1.90;1.80;;;14.30;99.90;;;;;;6363208;28;20300;-67
2022/09/28 08:04:30;;;;;;;1.88;1.88;;;14.40;99.90;;;;;;6363071;28;20261;-67
2022/09/28 08:07:37;;;;;;;3.13;1.88;;;14.40;99.90;;;;;;6363643;28;20293;-67
2022/09/28 08:10:45;;;;;;;2.60;1.83;;;14.50;99.90;;;;;;6345641;28;20285;-67
2022/09/28 08:14:10;;;;;;;4.43;1.80;;;14.50;99.90;;;;;;6363414;28;20281;-67
2022/09/28 08:17:47;;;;;;;4.15;2.00;;;14.50;99.90;;;;;;6361237;28;20583;-67
2022/09/28 08:24:19;;;;;;;10.43;1.92;;;14.50;99.90;;;;;;6363605;28;20265;-67
2022/09/28 08:27:26;;;;;;;1.85;1.75;;;14.50;99.90;;;;;;6361728;28;20296;-67
2022/09/28 08:30:32;;;;;;;4.75;1.80;;;14.50;99.90;;;;;;6345044;28;20273;-68
2022/09/28 08:33:57;;;;;;;1.77;1.77;;;14.40;99.90;;;;;;6363460;28;20285;-66
2022/09/28 08:37:20;;;;;;;3.00;1.80;;;14.40;99.90;;;;;;6362529;28;20289;-66
2022/09/28 08:40:53;;;;;;;1.67;1.67;;;14.40;99.90;;;;;;6362377;28;20309;-66
2022/09/28 08:44:22;;;;;;;1.80;1.70;;;14.50;99.90;;;;;;6345004;28;20268;-67
2022/09/28 08:51:45;;;;;;;2.15;1.60;;;14.40;99.90;;;;;;6362136;28;20288;-67
2022/09/28 08:55:16;;;;;;;1.83;1.73;;;14.30;99.90;;;;;;6361569;28;20327;-67
2022/09/28 08:58:29;;;;;;;1.65;1.65;;;14.40;99.90;;;;;;6360580;28;20289;-68
2022/09/28 09:01:39;;;;;;;5.03;1.67;;;14.40;99.90;;;;;;6361834;28;20302;-67
2022/09/28 09:04:50;;;;;;;1.60;1.50;;;14.40;99.90;;;;;;6344064;28;20261;-66
2022/09/28 09:08:34;;;;;;;1.95;1.95;;;14.50;99.90;;;;;;6343662;28;20289;-67
2022/09/28 09:11:56;;;;;;;1.60;1.50;;;14.50;99.90;;;;;;6330584;28;20290;-67
2022/09/28 09:15:33;;;;;;;1.90;1.50;;;14.60;99.90;;;;;;6338407;28;20263;-67
2022/09/28 09:18:52;;;;;;;1.60;1.55;;;14.70;99.90;;;;;;6335005;28;20553;-67
2022/09/28 09:22:18;;;;;;;1.98;1.50;;;14.70;99.90;;;;;;6352101;28;20290;-67
2022/09/28 09:25:28;;;;;;;1.90;1.40;;;14.70;99.90;;;;;;6352396;28;20271;-67
2022/09/28 09:29:14;;;;;;;2.53;1.60;;;14.80;99.90;;;;;;6352767;28;20282;-67
2022/09/28 09:32:40;;;;;;;1.88;1.65;;;14.80;99.90;;;;;;6352033;28;20305;-67
2022/09/28 09:35:58;;;;;;;1.65;1.55;;;14.60;99.90;;;;;;6334845;28;20317;-67
2022/09/28 09:39:46;;;;;;;3.38;1.60;;;14.70;99.90;;;;;;6335191;28;20270;-67
2022/09/28 09:43:57;;;;;;;3.40;2.75;;;14.70;99.90;;;;;;6307837;28;20270;-67
2022/09/28 09:47:33;;;;;;;1.83;1.73;;;14.70;99.90;;;;;;6287702;28;20301;-67
2022/09/28 09:50:48;;;;;;;4.07;1.77;;;14.70;99.90;;;;;;6351787;28;20293;-67
2022/09/28 09:53:58;;;;;;;1.85;1.67;;;14.80;99.90;;;;;;6335351;28;20266;-66
2022/09/28 09:57:07;;;;;;;5.63;1.85;;;14.70;99.90;;;;;;6335111;28;20290;-67
2022/09/28 10:00:22;;;;;;;1.90;1.80;;;14.70;99.90;;;;;;6334896;28;20481;-67
2022/09/28 10:03:47;;;;;;;1.40;1.40;;;14.80;99.90;;;;;;6335351;28;20266;-67
2022/09/28 10:07:01;;;;;;;1.60;1.50;;;14.70;99.90;;;;;;6334500;28;20597;-67
2022/09/28 10:10:13;;;;;;;1.70;1.65;;;14.70;99.90;;;;;;6334505;28;20293;-67
2022/09/28 10:13:25;;;;;;;2.17;1.98;;;14.80;99.90;;;;;;6350413;28;20688;-67
2022/09/28 10:16:32;;;;;;;1.77;1.77;;;14.70;99.90;;;;;;6334306;28;20302;-67
2022/09/28 10:19:43;;;;;;;2.70;1.60;;;14.70;99.90;;;;;;6334480;28;20273;-67
2022/09/28 10:23:21;;;;;;;6.97;2.08;;;14.70;99.90;;;;;;6307102;28;20293;-67
2022/09/28 10:26:32;;;;;;;3.00;1.77;;;14.80;99.90;;;;;;6335318;28;20290;-67
2022/09/28 10:29:46;;;;;;;2.60;1.42;;;14.90;99.90;;;;;;6334711;28;20286;-67
2022/09/28 10:32:54;;;;;;;1.60;1.60;;;14.90;99.90;;;;;;6334135;28;20293;-67
2022/09/28 10:36:02;;;;;;;4.43;1.73;;;14.80;99.90;;;;;;6335067;28;20289;-67
2022/09/28 10:39:32;;;;;;;2.05;1.88;;;14.80;99.90;;;;;;6335957;28;20444;-67
2022/09/28 10:42:37;;;;;;;1.88;1.63;;;14.80;99.90;;;;;;6333836;28;20315;-66
2022/09/28 10:45:43;;;;;;;1.73;1.60;;;14.80;99.90;;;;;;6333591;28;20293;-66
2022/09/28 10:48:52;;;;;;;1.80;1.70;;;14.80;99.90;;;;;;6334518;28;20290;-67
2022/09/28 10:52:02;;;;;;;2.35;1.90;;;14.90;99.90;;;;;;6338454;28;20313;-67
2022/09/28 10:55:35;;;;;;;2.00;1.90;;;14.70;99.90;;;;;;6338812;28;20265;-67
2022/09/28 10:58:43;;;;;;;1.60;1.60;;;14.90;99.90;;;;;;6339510;28;20270;-67
2022/09/28 11:01:55;;;;;;;1.70;1.40;;;14.90;99.90;;;;;;6355645;28;20301;-67
2022/09/28 11:05:03;;;;;;;1.88;1.77;;;14.90;99.90;;;;;;6338977;28;20266;-67
2022/09/28 11:08:32;;;;;;;1.55;1.55;;;14.90;99.90;;;;;;6338140;28;20553;-67
2022/09/28 11:11:41;;;;;;;5.28;1.63;;;14.80;99.90;;;;;;6355276;28;20297;-67
2022/09/28 11:14:51;;;;;;;8.32;1.52;;;14.70;99.90;;;;;;6346769;28;20261;-67
2022/09/28 11:17:56;;;;;;;6.00;1.60;;;14.70;99.90;;;;;;6346810;28;20293;-67
2022/09/28 11:21:10;;;;;;;2.47;1.58;;;14.70;99.90;;;;;;6346928;28;20298;-67
2022/09/28 11:24:25;;;;;;;1.60;1.50;;;14.80;99.90;;;;;;6347443;28;20494;-67
2022/09/28 11:27:34;;;;;;;3.25;1.40;;;14.80;99.90;;;;;;6363354;28;20595;-66
2022/09/28 11:30:47;;;;;;;3.05;1.50;;;14.60;99.90;;;;;;6346261;28;20301;-67
2022/09/28 11:34:16;;;;;;;2.80;1.60;;;14.60;99.90;;;;;;6364424;28;20280;-67
2022/09/28 11:37:46;;;;;;;6.13;1.35;;;14.60;99.90;;;;;;6364643;28;20297;-66
2022/09/28 11:41:17;;;;;;;1.48;1.48;;;14.60;99.90;;;;;;6362782;28;20293;-66
2022/09/28 11:44:43;;;;;;;3.40;1.58;;;14.60;99.90;;;;;;6346939;28;20269;-67
2022/09/28 11:47:56;;;;;;;7.85;2.00;;;14.50;99.90;;;;;;6346073;28;20288;-67
2022/09/28 11:51:06;;;;;;;1.50;1.40;;;14.60;99.90;;;;;;6363961;28;20297;-67
2022/09/28 11:54:21;;;;;;;1.75;1.65;;;14.60;99.90;;;;;;6364064;28;20270;-67
2022/09/28 11:57:34;;;;;;;5.60;1.50;;;14.70;99.90;;;;;;6346232;28;20297;-67
2022/09/28 12:00:45;;;;;;;1.52;1.30;;;14.70;99.90;;;;;;6362118;28;20308;-66
2022/09/28 12:03:53;;;;;;;1.30;1.20;;;14.70;99.90;;;;;;6363065;28;20265;-67
2022/09/28 12:07:03;;;;;;;5.13;1.50;;;14.80;99.90;;;;;;6362646;28;20576;-67
2022/09/28 12:10:15;;;;;;;2.92;1.58;;;14.80;99.90;;;;;;6345970;28;20284;-66
2022/09/28 12:13:26;;;;;;;1.80;1.80;;;14.80;99.90;;;;;;6331769;28;20298;-67
2022/09/28 12:16:35;;;;;;;2.67;2.08;;;14.70;99.90;;;;;;6313375;28;20290;-67
2022/09/28 12:20:09;;;;;;;1.52;1.50;;;14.60;99.90;;;;;;6313293;28;20561;-67
2022/09/28 12:23:18;;;;;;;1.45;1.40;;;14.50;99.90;;;;;;6313017;28;20266;-66
2022/09/28 12:26:31;;;;;;;1.40;1.30;;;14.60;99.90;;;;;;6312920;28;20581;-67
2022/09/28 12:29:47;;;;;;;1.30;1.30;;;14.50;99.90;;;;;;6313556;28;20266;-67
2022/09/28 12:32:57;;;;;;;1.38;1.33;;;14.60;99.90;;;;;;6312926;28;20302;-67
2022/09/28 12:36:10;;;;;;;1.42;1.42;;;14.50;99.90;;;;;;6312800;28;20290;-67
2022/09/28 12:39:40;;;;;;;1.50;1.20;;;14.60;99.90;;;;;;6313266;28;20270;-66
2022/09/28 12:43:59;;;;;;;1.40;1.40;;;14.70;99.90;;;;;;6312316;28;20451;-67
2022/09/28 12:47:45;;;;;;;2.05;1.40;;;14.60;99.90;;;;;;6300872;28;20450;-67
2022/09/28 12:51:01;;;;;;;1.05;1.05;;;14.50;99.90;;;;;;6306994;28;20453;-67
2022/09/28 12:54:19;;;;;;;3.15;1.60;;;14.30;99.90;;;;;;6312692;28;20275;-67
2022/09/28 12:57:38;;;;;;;1.75;1.40;;;14.20;99.90;;;;;;6312139;28;20295;-66
2022/09/28 13:00:53;;;;;;;3.15;1.70;;;14.20;99.90;;;;;;6311964;28;20314;-66
2022/09/28 13:04:20;;;;;;;1.33;1.33;;;14.20;99.90;;;;;;6312530;28;20521;-67
2022/09/28 13:07:32;;;;;;;3.67;1.50;;;14.30;99.90;;;;;;6311957;28;20290;-67
2022/09/28 13:10:44;;;;;;;2.42;1.50;;;14.30;99.90;;;;;;6312031;28;20298;-67
2022/09/28 13:13:56;;;;;;;1.10;1.10;;;14.40;99.90;;;;;;6350782;28;20583;-67
2022/09/28 13:17:09;;;;;;;2.25;1.20;;;14.50;99.90;;;;;;6361728;28;20302;-68
2022/09/28 13:20:34;;;;;;;1.20;1.20;;;14.40;99.90;;;;;;6362660;28;20269;-68
2022/09/28 13:23:42;;;;;;;2.95;1.20;;;14.40;99.90;;;;;;6361668;28;20446;-68
2022/09/28 13:26:48;;;;;;;1.15;1.13;;;14.40;99.90;;;;;;6361848;28;20304;-67
2022/09/28 13:29:53;;;;;;;2.50;1.40;;;14.30;99.90;;;;;;6362442;28;20265;-67
2022/09/28 13:33:06;;;;;;;1.70;1.20;;;14.40;99.90;;;;;;6361581;28;20313;-67
2022/09/28 13:36:38;;;;;;;1.95;1.33;;;14.70;99.90;;;;;;6361385;28;20285;-67
2022/09/28 13:39:51;;;;;;;3.50;1.50;;;14.50;99.90;;;;;;6354967;28;20269;-68
2022/09/28 13:43:22;;;;;;;2.15;1.38;;;14.50;99.90;;;;;;6361392;28;20297;-68
2022/09/28 13:46:36;;;;;;;2.65;1.30;;;14.30;99.90;;;;;;6361083;28;20297;-66
2022/09/28 13:49:54;;;;;;;1.80;1.10;;;14.30;99.90;;;;;;6361827;28;20337;-66
2022/09/28 13:53:11;;;;;;;1.27;1.20;;;14.30;99.90;;;;;;6361037;28;20297;-66
2022/09/28 13:56:28;;;;;;;1.40;1.40;;;14.80;99.90;;;;;;6360936;28;20289;-66
2022/09/28 13:59:49;;;;;;;1.63;1.33;;;14.70;99.90;;;;;;6361092;28;20265;-66
2022/09/28 14:03:00;;;;;;;1.17;1.10;;;14.40;99.90;;;;;;6360282;28;20296;-66
2022/09/28 14:06:22;;;;;;;1.10;1.10;;;14.20;99.90;;;;;;6361002;28;20281;-67
2022/09/28 14:09:42;;;;;;;1.20;1.15;;;14.00;99.90;;;;;;6360951;28;20269;-67
2022/09/28 14:12:50;;;;;;;4.22;1.00;;;14.00;99.90;;;;;;6359903;28;20306;-66
2022/09/28 14:16:21;;;;;;;2.13;1.05;;;14.00;99.90;;;;;;6335249;28;20380;-66
2022/09/28 14:19:30;;;;;;;1.25;1.25;;;14.20;99.90;;;;;;6335868;28;20285;-67
2022/09/28 14:22:43;;;;;;;1.20;1.10;;;14.10;99.90;;;;;;6335645;28;20301;-67
2022/09/28 14:26:20;;;;;;;1.25;0.85;;;14.00;99.90;;;;;;6334852;28;20290;-67
2022/09/28 14:29:28;;;;;;;0.90;0.90;;;14.00;99.90;;;;;;6335528;28;20265;-67
2022/09/28 14:32:35;;;;;;;1.00;1.00;;;14.00;99.90;;;;;;6334945;28;20596;-67
2022/09/28 14:35:49;;;;;;;2.05;0.85;;;14.00;99.90;;;;;;6335287;28;20290;-67
2022/09/28 14:42:21;;;;;;;1.17;1.17;;;13.80;99.90;;;;;;6335245;28;20301;-65
2022/09/28 14:45:37;;;;;;;2.13;1.40;;;13.60;99.90;;;;;;6335201;28;20549;-66
2022/09/28 14:48:46;;;;;;;3.47;1.20;;;13.60;99.90;;;;;;6335401;28;20541;-66
2022/09/28 14:52:03;;;;;;;2.80;1.40;;;13.50;99.90;;;;;;6335117;28;20297;-66
2022/09/28 14:55:15;;;;;;;1.60;1.60;;;13.50;99.90;;;;;;6335125;28;20279;-67
2022/09/28 14:58:24;;;;;;;1.17;1.17;;;13.50;99.90;;;;;;6333979;28;20274;-66
2022/09/28 15:01:29;;;;;;;1.30;1.30;;;13.50;99.90;;;;;;6334720;28;20309;-66
2022/09/28 15:04:54;;;;;;;2.25;1.40;;;13.60;99.90;;;;;;6335655;28;20266;-67
2022/09/28 15:08:00;;;;;;;1.77;1.20;;;13.70;99.90;;;;;;6334869;28;20290;-67
2022/09/28 15:11:06;;;;;;;1.40;1.40;;;13.70;99.90;;;;;;6331828;28;20466;-67
2022/09/28 15:14:14;;;;;;;1.30;1.30;;;13.70;99.90;;;;;;6323767;28;20293;-67
2022/09/28 15:17:22;;;;;;;1.13;1.13;;;13.80;99.90;;;;;;6335488;28;20302;-67
2022/09/28 15:20:37;;;;;;;1.60;1.60;;;13.70;99.90;;;;;;6334934;28;20271;-67
2022/09/28 15:23:44;;;;;;;1.60;1.60;;;13.70;99.90;;;;;;6350388;28;20290;-67
2022/09/28 15:26:49;;;;;;;1.60;1.60;;;13.70;99.90;;;;;;6334870;28;20348;-67
2022/09/28 15:29:59;;;;;;;2.40;2.40;;;13.60;99.90;;;;;;6335497;28;20293;-67
2022/09/28 15:36:26;;;;;;;1.52;1.52;;;13.40;99.90;;;;;;6301827;28;20290;-67
2022/09/28 15:39:32;;;;;;;1.40;1.40;;;13.40;99.90;;;;;;6339365;28;20456;-67
2022/09/28 15:42:38;;;;;;;1.65;1.65;;;13.40;99.90;;;;;;6339365;28;20481;-67
2022/09/28 15:45:44;;;;;;;1.60;1.52;;;13.40;99.90;;;;;;6337373;28;20290;-67
2022/09/28 15:48:54;;;;;;;1.58;1.58;;;13.30;99.90;;;;;;6339232;28;20270;-67
2022/09/28 15:52:01;;;;;;;1.20;1.20;;;13.30;99.90;;;;;;6338905;28;20294;-67
2022/09/28 15:55:20;;;;;;;1.30;1.30;;;13.20;99.90;;;;;;6339568;28;20573;-67
2022/09/28 15:58:26;;;;;;;1.50;1.50;;;13.20;99.90;;;;;;6338176;28;20352;-67
2022/09/28 16:01:36;;;;;;;1.20;1.20;;;13.20;99.90;;;;;;6338763;28;20298;-67
2022/09/28 16:04:49;;;;;;;3.00;2.90;;;13.10;99.90;;;;;;6339492;28;20558;-68
2022/09/28 16:07:54;;;;;;;3.00;2.80;;;13.10;99.90;;;;;;6338640;28;20293;-67
2022/09/28 16:11:10;;;;;;;1.67;1.67;;;13.10;99.90;;;;;;6338392;28;20290;-67
2022/09/28 16:14:19;;;;;;;1.77;1.48;;;13.10;99.90;;;;;;6350091;28;20289;-67
2022/09/28 16:17:32;;;;;;;1.38;1.38;;;13.00;99.90;;;;;;6363324;28;20297;-67
2022/09/28 16:20:39;;;;;;;1.52;1.52;;;13.00;99.90;;;;;;6363423;28;20301;-66
2022/09/28 16:23:51;;;;;;;1.88;1.80;;;13.00;99.90;;;;;;6363428;28;20449;-66
2022/09/28 16:26:59;;;;;;;1.40;1.40;;;13.00;99.90;;;;;;6363737;28;20285;-66
2022/09/28 16:30:27;;;;;;;2.00;1.65;;;13.00;99.90;;;;;;6363261;28;20269;-66
2022/09/28 16:33:40;;;;;;;1.65;1.55;;;12.90;99.90;;;;;;6359494;28;20288;-66
2022/09/28 16:36:48;;;;;;;3.30;3.05;;;13.00;99.90;;;;;;6363207;28;20294;-67
2022/09/28 16:39:53;;;;;;;2.20;2.10;;;13.00;99.90;;;;;;6363638;28;20269;-66
2022/09/28 16:43:01;;;;;;;1.70;1.60;;;12.90;99.90;;;;;;6363027;28;20288;-66
2022/09/28 16:46:10;;;;;;;3.40;1.83;;;12.90;99.90;;;;;;6362880;28;20289;-66
2022/09/28 16:49:20;;;;;;;2.00;1.83;;;12.90;99.90;;;;;;6363429;28;20262;-67
2022/09/28 16:55:44;;;;;;;2.22;2.00;;;13.00;99.90;;;;;;6362127;28;20592;-67
2022/09/28 16:58:49;;;;;;;1.65;1.65;;;13.00;99.90;;;;;;6362685;28;20269;-66
2022/09/28 17:01:55;;;;;;;1.90;1.60;;;13.00;99.90;;;;;;6362450;28;20284;-66
2022/09/28 17:05:01;;;;;;;1.80;1.80;;;13.00;99.90;;;;;;6362690;28;20293;-66
2022/09/28 17:08:16;;;;;;;2.03;1.92;;;13.00;99.90;;;;;;6362129;28;20588;-66